Time;durP1;ratioP1;P1;durP2;ratioP2;P2;SDS_P1;SDS_P2;PMS_P1;PMS_P2;Temp;Humidity;BMP_temperature;BMP_pressure;BME280_temperature;BME280_humidity;BME280_pressure;Samples;Min_cycle;Max_cycle;Signal;HPM_P1;HPM_P2
2024/01/08 00:01:15;;;;;;;1.30;1.30;;;16.40;71.70;;;;;;5044046;28;43843;-71
2024/01/08 00:03:44;;;;;;;1.40;1.40;;;16.40;71.70;;;;;;5030289;28;43477;-70
2024/01/08 00:06:12;;;;;;;1.30;1.30;;;16.40;71.60;;;;;;5038222;28;43796;-70
2024/01/08 00:08:40;;;;;;;1.23;1.23;;;16.30;71.60;;;;;;5042951;28;43451;-70
2024/01/08 00:11:08;;;;;;;1.17;1.17;;;16.30;71.80;;;;;;5046504;28;43690;-71
2024/01/08 00:13:36;;;;;;;1.20;1.20;;;16.30;71.80;;;;;;5037356;28;43614;-70
2024/01/08 00:16:05;;;;;;;1.10;1.10;;;16.20;72.10;;;;;;5035601;28;43419;-70
2024/01/08 00:18:34;;;;;;;1.20;1.20;;;16.30;71.90;;;;;;5047444;28;43340;-70
2024/01/08 00:21:03;;;;;;;1.23;1.23;;;16.30;71.80;;;;;;5044185;28;45846;-71
2024/01/08 00:23:33;;;;;;;1.20;1.20;;;16.30;71.90;;;;;;5034499;28;45836;-71
2024/01/08 00:26:01;;;;;;;1.20;1.20;;;16.30;71.90;;;;;;5033851;28;43445;-71
2024/01/08 00:28:29;;;;;;;1.17;1.17;;;16.30;71.90;;;;;;5047550;28;43545;-70
2024/01/08 00:30:57;;;;;;;1.10;1.10;;;16.20;72.00;;;;;;5039253;28;44070;-70
2024/01/08 00:33:26;;;;;;;1.17;1.17;;;16.20;72.00;;;;;;5037657;28;43433;-70
2024/01/08 00:35:55;;;;;;;1.10;1.10;;;16.20;72.00;;;;;;5041765;28;43435;-71
2024/01/08 00:38:23;;;;;;;1.23;1.23;;;16.20;71.90;;;;;;5031940;28;43928;-70
2024/01/08 00:40:52;;;;;;;1.23;1.23;;;16.20;72.00;;;;;;5036215;28;46139;-70
2024/01/08 00:43:20;;;;;;;1.20;1.20;;;16.20;72.00;;;;;;5048183;28;43729;-71
2024/01/08 00:45:48;;;;;;;1.10;1.10;;;16.20;72.00;;;;;;5042696;28;43918;-70
2024/01/08 00:48:16;;;;;;;1.20;1.20;;;16.20;72.30;;;;;;5032456;28;43510;-70
2024/01/08 00:50:44;;;;;;;1.20;1.20;;;16.20;72.40;;;;;;5035903;28;43864;-71
2024/01/08 00:53:14;;;;;;;1.10;1.10;;;16.40;72.20;;;;;;5042817;28;43508;-77
2024/01/08 00:55:42;;;;;;;1.23;1.23;;;16.50;71.80;;;;;;5032386;28;43362;-70
2024/01/08 00:58:10;;;;;;;1.20;1.20;;;16.50;71.10;;;;;;5050055;28;43407;-70
2024/01/08 01:00:38;;;;;;;1.03;1.03;;;16.50;70.80;;;;;;5036460;28;43612;-70
2024/01/08 01:03:06;;;;;;;1.10;1.10;;;16.50;70.90;;;;;;5050868;28;43387;-70
2024/01/08 01:05:34;;;;;;;1.10;1.10;;;16.50;71.40;;;;;;5041954;28;43456;-71
2024/01/08 01:08:02;;;;;;;1.10;1.10;;;16.50;71.10;;;;;;5040081;28;43468;-70
2024/01/08 01:10:32;;;;;;;1.10;1.10;;;16.40;71.00;;;;;;5036551;28;45670;-71
2024/01/08 01:13:00;;;;;;;1.10;1.10;;;16.40;71.20;;;;;;5051741;28;44869;-70
2024/01/08 01:15:28;;;;;;;1.10;1.10;;;16.40;71.30;;;;;;5037690;28;43469;-71
2024/01/08 01:17:56;;;;;;;1.30;1.30;;;16.30;71.40;;;;;;5037542;28;43422;-71
2024/01/08 01:20:24;;;;;;;1.03;1.03;;;16.30;71.60;;;;;;5032887;28;43850;-71
2024/01/08 01:22:53;;;;;;;1.13;1.13;;;16.30;71.60;;;;;;5049584;28;44670;-70
2024/01/08 01:25:21;;;;;;;1.10;1.10;;;16.30;71.60;;;;;;5060360;28;43495;-71
2024/01/08 01:27:50;;;;;;;1.10;1.10;;;16.30;71.60;;;;;;5050506;28;43378;-69
2024/01/08 01:30:18;;;;;;;1.00;1.00;;;16.20;71.60;;;;;;5067087;28;43817;-69
2024/01/08 01:32:46;;;;;;;1.10;1.10;;;16.30;71.70;;;;;;5071826;28;43409;-69
2024/01/08 01:35:15;;;;;;;1.20;1.20;;;16.20;71.70;;;;;;5070639;28;43427;-69
2024/01/08 01:37:44;;;;;;;1.03;1.03;;;16.20;72.00;;;;;;5055924;28;43586;-70
2024/01/08 01:40:12;;;;;;;1.10;1.10;;;16.20;71.80;;;;;;5060932;27;45685;-69
2024/01/08 01:42:40;;;;;;;1.00;1.00;;;16.20;71.70;;;;;;5064152;28;43431;-69
2024/01/08 01:45:10;;;;;;;0.90;0.90;;;16.20;71.70;;;;;;5075567;27;43406;-69
2024/01/08 01:47:38;;;;;;;1.00;1.00;;;16.20;71.70;;;;;;5067199;27;43398;-69
2024/01/08 01:50:07;;;;;;;1.00;1.00;;;16.20;71.70;;;;;;5071454;28;43789;-69
2024/01/08 01:52:36;;;;;;;0.80;0.80;;;16.20;71.70;;;;;;5065025;27;45059;-69
2024/01/08 01:55:04;;;;;;;1.10;1.10;;;16.20;72.10;;;;;;5065849;28;43336;-69
2024/01/08 01:57:32;;;;;;;1.00;1.00;;;16.20;72.20;;;;;;5070778;27;43533;-69
2024/01/08 02:00:00;;;;;;;1.00;1.00;;;16.30;72.00;;;;;;5067752;27;43757;-69
2024/01/08 02:02:30;;;;;;;1.00;1.00;;;16.50;71.50;;;;;;5072147;28;43474;-68
2024/01/08 02:04:58;;;;;;;1.00;1.00;;;16.50;70.90;;;;;;5069106;28;43780;-69
2024/01/08 02:07:27;;;;;;;1.03;1.03;;;16.50;70.90;;;;;;5064719;28;43440;-69
2024/01/08 02:09:55;;;;;;;1.07;1.07;;;16.40;70.90;;;;;;5060906;28;43612;-70
2024/01/08 02:12:23;;;;;;;0.93;0.93;;;16.40;71.30;;;;;;5064332;28;43432;-69
2024/01/08 02:14:51;;;;;;;1.00;1.00;;;16.40;71.00;;;;;;5064318;28;43502;-69
2024/01/08 02:17:19;;;;;;;0.80;0.80;;;16.40;71.00;;;;;;5065942;28;43484;-70
2024/01/08 02:19:48;;;;;;;0.80;0.80;;;16.30;71.10;;;;;;5063605;28;43706;-70
2024/01/08 02:22:16;;;;;;;1.10;1.10;;;16.30;71.30;;;;;;5062508;28;43431;-70
2024/01/08 02:24:46;;;;;;;0.90;0.90;;;16.30;72.00;;;;;;5065532;27;43411;-70
2024/01/08 02:27:14;;;;;;;1.00;1.00;;;16.30;71.70;;;;;;5059740;28;43399;-69
2024/01/08 02:29:42;;;;;;;0.90;0.90;;;16.30;71.60;;;;;;5055416;28;43616;-70
2024/01/08 02:32:10;;;;;;;0.90;0.90;;;16.30;71.50;;;;;;5065540;28;43392;-70
2024/01/08 02:34:39;;;;;;;1.00;1.00;;;16.20;71.50;;;;;;5059593;28;43442;-69
2024/01/08 02:37:07;;;;;;;0.90;0.90;;;16.20;71.60;;;;;;5050931;28;43429;-73
2024/01/08 02:39:35;;;;;;;0.90;0.90;;;16.20;71.60;;;;;;5039457;28;43883;-71
2024/01/08 02:42:05;;;;;;;1.00;1.00;;;16.20;71.60;;;;;;5043331;28;43480;-71
2024/01/08 02:44:33;;;;;;;1.00;1.00;;;16.20;72.00;;;;;;5038447;28;43419;-73
2024/01/08 02:47:01;;;;;;;0.90;0.90;;;16.30;72.20;;;;;;5034572;28;43561;-73
2024/01/08 02:49:29;;;;;;;1.00;1.00;;;16.30;71.50;;;;;;5038360;28;43758;-70
2024/01/08 02:51:57;;;;;;;1.10;1.10;;;16.30;71.20;;;;;;5041801;28;43517;-73
2024/01/08 02:54:26;;;;;;;0.83;0.83;;;16.30;71.10;;;;;;5036974;28;44041;-71
2024/01/08 02:56:54;;;;;;;0.73;0.73;;;16.30;71.10;;;;;;5040698;28;43471;-71
2024/01/08 02:59:23;;;;;;;0.90;0.90;;;16.30;71.30;;;;;;5049847;28;43683;-71
2024/01/08 03:01:51;;;;;;;0.97;0.97;;;16.30;71.50;;;;;;5035849;28;43482;-71
2024/01/08 03:04:19;;;;;;;0.90;0.90;;;16.20;71.30;;;;;;5042916;28;43470;-70
2024/01/08 03:06:47;;;;;;;1.07;1.07;;;16.30;71.20;;;;;;5041058;28;43518;-71
2024/01/08 03:09:16;;;;;;;0.90;0.90;;;16.20;71.30;;;;;;5033982;28;43603;-71
2024/01/08 03:11:44;;;;;;;0.90;0.90;;;16.20;71.40;;;;;;5029333;28;43476;-71
2024/01/08 03:14:12;;;;;;;0.80;0.80;;;16.20;71.50;;;;;;5039800;28;43436;-72
2024/01/08 03:16:41;;;;;;;0.70;0.70;;;16.20;71.70;;;;;;5035713;28;43926;-71
2024/01/08 03:19:09;;;;;;;0.80;0.80;;;16.20;71.40;;;;;;5037692;28;46190;-71
2024/01/08 03:21:39;;;;;;;0.90;0.90;;;16.20;71.50;;;;;;5030686;28;44401;-71
2024/01/08 03:24:07;;;;;;;0.80;0.80;;;16.20;71.50;;;;;;5043333;28;43470;-72
2024/01/08 03:26:35;;;;;;;0.80;0.80;;;16.20;71.50;;;;;;5034093;28;43417;-70
2024/01/08 03:29:03;;;;;;;0.90;0.90;;;16.20;71.60;;;;;;5043695;28;44018;-72
2024/01/08 03:31:32;;;;;;;1.00;1.00;;;16.10;71.50;;;;;;5037101;28;43376;-71
2024/01/08 03:34:01;;;;;;;0.70;0.63;;;16.10;72.00;;;;;;5038712;28;43434;-71
2024/01/08 03:36:29;;;;;;;0.83;0.83;;;16.20;72.00;;;;;;5033231;28;43419;-71
2024/01/08 03:38:57;;;;;;;1.00;1.00;;;16.30;71.60;;;;;;5043283;28;43705;-71
2024/01/08 03:41:26;;;;;;;0.60;0.60;;;16.40;71.00;;;;;;5034147;28;43991;-71
2024/01/08 03:43:54;;;;;;;0.70;0.70;;;16.40;70.70;;;;;;5047453;28;43420;-71
2024/01/08 03:46:25;;;;;;;0.87;0.87;;;16.40;70.70;;;;;;5045652;28;43404;-71
2024/01/08 03:48:53;;;;;;;0.87;0.87;;;16.30;70.90;;;;;;5035086;28;46078;-72
2024/01/08 03:51:23;;;;;;;0.70;0.70;;;16.30;71.10;;;;;;5048695;28;43401;-72
2024/01/08 03:53:51;;;;;;;0.90;0.90;;;16.30;71.70;;;;;;5034740;28;43983;-70
2024/01/08 03:56:19;;;;;;;0.70;0.70;;;16.30;71.00;;;;;;5050190;28;44017;-71
2024/01/08 03:58:50;;;;;;;0.90;0.90;;;16.20;70.90;;;;;;5038509;28;44932;-71
2024/01/08 04:01:20;;;;;;;0.77;0.77;;;16.20;71.10;;;;;;5032470;28;43365;-72
2024/01/08 04:03:49;;;;;;;0.87;0.87;;;16.20;71.20;;;;;;5038384;28;43522;-72
2024/01/08 04:06:17;;;;;;;0.70;0.70;;;16.20;71.50;;;;;;5046245;28;43348;-71
2024/01/08 04:08:48;;;;;;;0.80;0.80;;;16.20;71.30;;;;;;5044326;28;45077;-71
2024/01/08 04:11:16;;;;;;;0.90;0.90;;;16.20;71.30;;;;;;5038235;28;43379;-71
2024/01/08 04:13:44;;;;;;;0.70;0.70;;;16.20;71.30;;;;;;5041478;28;43408;-71
2024/01/08 04:16:12;;;;;;;0.87;0.87;;;16.20;71.30;;;;;;5029933;28;43539;-71
2024/01/08 04:18:40;;;;;;;0.80;0.80;;;16.10;71.30;;;;;;5039835;28;44036;-72
2024/01/08 04:21:08;;;;;;;0.73;0.73;;;16.10;71.40;;;;;;5044123;28;44914;-71
2024/01/08 04:23:36;;;;;;;0.83;0.83;;;16.10;71.80;;;;;;5040737;28;43434;-71
2024/01/08 04:26:07;;;;;;;0.83;0.83;;;16.20;71.90;;;;;;5047655;28;43533;-71
2024/01/08 04:28:35;;;;;;;0.60;0.60;;;16.30;71.60;;;;;;5034085;28;45782;-71
2024/01/08 04:31:03;;;;;;;0.80;0.80;;;16.30;70.80;;;;;;5030381;28;43423;-71
2024/01/08 04:33:31;;;;;;;0.73;0.73;;;16.30;70.60;;;;;;5042562;28;43444;-71
2024/01/08 04:35:59;;;;;;;0.80;0.80;;;16.30;70.60;;;;;;5036050;28;43591;-71
2024/01/08 04:38:27;;;;;;;0.87;0.87;;;16.30;70.80;;;;;;5038555;28;43945;-71
2024/01/08 04:40:55;;;;;;;0.80;0.80;;;16.30;71.10;;;;;;5037437;28;43342;-71
2024/01/08 04:43:25;;;;;;;0.80;0.80;;;16.30;70.80;;;;;;5042138;28;43406;-71
2024/01/08 04:45:53;;;;;;;0.70;0.70;;;16.30;70.90;;;;;;5040598;28;43395;-71
2024/01/08 04:48:21;;;;;;;0.80;0.80;;;16.20;70.90;;;;;;5035465;28;44310;-71
2024/01/08 04:50:53;;;;;;;0.77;0.77;;;16.20;70.90;;;;;;5030464;28;43303;-71
2024/01/08 04:53:21;;;;;;;0.90;0.90;;;16.20;71.10;;;;;;5048568;28;43421;-71
2024/01/08 04:55:49;;;;;;;0.70;0.70;;;16.20;71.40;;;;;;5043960;28;43484;-71
2024/01/08 04:58:17;;;;;;;0.80;0.80;;;16.10;71.20;;;;;;5029346;28;43950;-71
2024/01/08 05:00:46;;;;;;;0.60;0.60;;;16.20;71.20;;;;;;5035717;28;43345;-71
2024/01/08 05:03:14;;;;;;;0.70;0.70;;;16.10;71.20;;;;;;5041981;28;43373;-71
2024/01/08 05:05:43;;;;;;;0.70;0.70;;;16.10;71.20;;;;;;5033279;28;43416;-71
2024/01/08 05:08:11;;;;;;;0.90;0.90;;;16.10;71.30;;;;;;5032728;28;46882;-71
2024/01/08 05:10:39;;;;;;;0.90;0.90;;;16.10;71.30;;;;;;5042491;28;43800;-71
2024/01/08 05:13:07;;;;;;;0.80;0.80;;;16.10;72.20;;;;;;5035988;28;44224;-71
2024/01/08 05:15:35;;;;;;;0.70;0.70;;;16.10;71.80;;;;;;5036635;28;43465;-71
2024/01/08 05:18:05;;;;;;;0.80;0.80;;;16.30;71.60;;;;;;5043383;28;45643;-72
2024/01/08 05:20:34;;;;;;;0.90;0.90;;;16.30;70.90;;;;;;5033726;28;43400;-72
2024/01/08 05:23:03;;;;;;;0.73;0.73;;;16.30;70.60;;;;;;5042483;28;43412;-72
2024/01/08 05:25:33;;;;;;;0.80;0.80;;;16.30;70.60;;;;;;5033642;28;43376;-72
2024/01/08 05:28:01;;;;;;;0.53;0.53;;;16.30;70.70;;;;;;5040541;28;43884;-72
2024/01/08 05:30:29;;;;;;;0.50;0.50;;;16.30;71.20;;;;;;5044037;28;43543;-72
2024/01/08 05:32:57;;;;;;;0.70;0.70;;;16.30;70.90;;;;;;5041823;28;43435;-72
2024/01/08 05:35:27;;;;;;;0.80;0.80;;;16.30;70.90;;;;;;5035243;28;43974;-72
2024/01/08 05:37:56;;;;;;;0.70;0.70;;;16.20;70.90;;;;;;5037447;28;43956;-72
2024/01/08 05:40:24;;;;;;;0.80;0.80;;;16.20;71.00;;;;;;5032367;28;43526;-72
2024/01/08 05:42:52;;;;;;;0.67;0.67;;;16.20;71.10;;;;;;5041806;28;43392;-72
2024/01/08 05:45:21;;;;;;;0.73;0.73;;;16.20;71.20;;;;;;5035216;28;43870;-72
2024/01/08 05:47:50;;;;;;;0.80;0.80;;;16.20;71.10;;;;;;5034825;28;46148;-71
2024/01/08 05:50:19;;;;;;;0.73;0.73;;;16.20;71.20;;;;;;5044145;28;43439;-71
2024/01/08 05:52:48;;;;;;;0.70;0.70;;;16.20;71.20;;;;;;5045567;28;44122;-71
2024/01/08 05:55:16;;;;;;;0.70;0.70;;;16.20;71.10;;;;;;5044331;28;43928;-71
2024/01/08 05:57:44;;;;;;;0.70;0.70;;;16.20;71.20;;;;;;5039171;28;43593;-71
2024/01/08 06:00:14;;;;;;;0.80;0.80;;;16.20;71.20;;;;;;5040108;28;43464;-72
2024/01/08 06:02:42;;;;;;;0.80;0.80;;;16.10;71.10;;;;;;5039644;28;43471;-71
2024/01/08 06:05:11;;;;;;;0.80;0.80;;;16.20;71.60;;;;;;5038396;28;43412;-71
2024/01/08 06:07:45;;;;;;;0.60;0.60;;;16.30;71.50;;;;;;5041119;28;44016;-70
2024/01/08 06:10:14;;;;;;;0.70;0.70;;;16.30;70.80;;;;;;5053128;28;43397;-70
2024/01/08 06:12:42;;;;;;;0.70;0.70;;;16.30;70.30;;;;;;5060180;28;43403;-70
2024/01/08 06:15:11;;;;;;;0.70;0.70;;;16.30;70.50;;;;;;5045207;28;43459;-70
2024/01/08 06:17:39;;;;;;;0.90;0.90;;;16.30;70.60;;;;;;5066572;28;43683;-70
2024/01/08 06:20:13;;;;;;;0.70;0.70;;;16.30;70.90;;;;;;5060048;28;43416;-71
2024/01/08 06:22:42;;;;;;;0.90;0.90;;;16.30;70.70;;;;;;5060645;28;43539;-71
2024/01/08 06:25:10;;;;;;;0.90;0.90;;;16.30;70.70;;;;;;5055768;28;43513;-71
2024/01/08 06:27:39;;;;;;;0.80;0.80;;;16.20;70.70;;;;;;5056890;28;46088;-71
2024/01/08 06:30:09;;;;;;;0.90;0.90;;;16.20;70.80;;;;;;5060305;28;43353;-71
2024/01/08 06:32:38;;;;;;;0.70;0.70;;;16.20;70.90;;;;;;5057908;28;43431;-71
2024/01/08 06:35:06;;;;;;;0.77;0.77;;;16.20;70.90;;;;;;5046722;28;43994;-70
2024/01/08 06:37:34;;;;;;;0.70;0.70;;;16.10;70.90;;;;;;5045566;28;43876;-70
2024/01/08 06:40:02;;;;;;;0.70;0.70;;;16.20;71.00;;;;;;5052397;28;43463;-70
2024/01/08 06:42:30;;;;;;;0.67;0.67;;;16.10;70.90;;;;;;5061291;28;43395;-70
2024/01/08 06:45:20;;;;;;;0.80;0.80;;;16.10;70.90;;;;;;5068213;28;43425;-71
2024/01/08 06:47:48;;;;;;;0.70;0.70;;;16.10;71.00;;;;;;5065989;28;43622;-71
2024/01/08 06:50:16;;;;;;;0.90;0.90;;;16.10;70.90;;;;;;5050750;28;43991;-71
2024/01/08 06:52:44;;;;;;;0.70;0.70;;;16.10;71.20;;;;;;5052725;28;43722;-71
2024/01/08 06:55:16;;;;;;;0.73;0.73;;;16.10;71.00;;;;;;5060049;28;43430;-71
2024/01/08 06:57:44;;;;;;;0.70;0.70;;;16.10;71.10;;;;;;5064482;28;44542;-70
2024/01/08 07:00:13;;;;;;;0.90;0.90;;;16.10;71.10;;;;;;5054403;28;43447;-70
2024/01/08 07:02:42;;;;;;;0.90;0.90;;;16.10;71.10;;;;;;5055507;28;43400;-70
2024/01/08 07:05:11;;;;;;;0.70;0.70;;;16.10;71.10;;;;;;5053896;28;43488;-70
2024/01/08 07:07:40;;;;;;;0.90;0.90;;;16.10;71.20;;;;;;5046374;28;43848;-70
2024/01/08 07:10:09;;;;;;;0.70;0.70;;;16.10;71.40;;;;;;5053295;28;43420;-70
2024/01/08 07:12:37;;;;;;;0.93;0.77;;;16.10;71.40;;;;;;5058894;28;44101;-70
2024/01/08 07:15:06;;;;;;;0.90;0.90;;;16.30;71.30;;;;;;5058454;28;43387;-70
2024/01/08 07:17:34;;;;;;;0.90;0.90;;;16.30;70.50;;;;;;5062952;28;43618;-70
2024/01/08 07:20:04;;;;;;;0.80;0.80;;;16.30;70.30;;;;;;5062481;28;43439;-70
2024/01/08 07:22:32;;;;;;;0.80;0.80;;;16.30;70.30;;;;;;5065030;28;44048;-70
2024/01/08 07:25:00;;;;;;;0.70;0.70;;;16.30;70.40;;;;;;5052093;28;43403;-70
2024/01/08 07:27:28;;;;;;;0.80;0.80;;;16.30;70.70;;;;;;5059326;28;43615;-70
2024/01/08 07:29:56;;;;;;;0.80;0.80;;;16.30;70.60;;;;;;5063584;28;43395;-70
2024/01/08 07:32:24;;;;;;;0.57;0.57;;;16.20;70.40;;;;;;5060021;28;43494;-70
2024/01/08 07:34:54;;;;;;;0.70;0.70;;;16.20;70.50;;;;;;5058389;28;43448;-70
2024/01/08 07:37:24;;;;;;;0.80;0.80;;;16.20;70.70;;;;;;5050381;28;43612;-71
2024/01/08 07:39:52;;;;;;;0.70;0.70;;;16.20;70.70;;;;;;5062452;28;43461;-71
2024/01/08 07:42:20;;;;;;;0.90;0.90;;;16.10;70.80;;;;;;5053946;28;43444;-70
2024/01/08 07:44:48;;;;;;;0.90;0.90;;;16.10;71.20;;;;;;5059024;28;43543;-69
2024/01/08 07:47:16;;;;;;;0.97;0.97;;;16.20;71.10;;;;;;5053852;28;45700;-70
2024/01/08 07:49:44;;;;;;;0.80;0.80;;;16.20;70.50;;;;;;5052828;28;43499;-70
2024/01/08 07:52:12;;;;;;;0.63;0.63;;;16.30;70.50;;;;;;5060019;28;43462;-70
2024/01/08 07:54:42;;;;;;;0.80;0.80;;;16.20;70.40;;;;;;5057399;28;43462;-70
2024/01/08 07:57:10;;;;;;;0.90;0.90;;;16.20;70.50;;;;;;5059688;28;45350;-70
2024/01/08 07:59:39;;;;;;;0.70;0.70;;;16.20;70.60;;;;;;5058150;28;43672;-70
2024/01/08 08:02:07;;;;;;;1.23;0.80;;;16.20;70.80;;;;;;5055945;28;43509;-70
2024/01/08 08:04:35;;;;;;;0.80;0.80;;;16.20;70.70;;;;;;5077454;28;43481;-69
2024/01/08 08:07:03;;;;;;;0.83;0.83;;;16.10;70.60;;;;;;5058141;28;45790;-70
2024/01/08 08:09:32;;;;;;;0.70;0.70;;;16.20;70.80;;;;;;5063160;28;43392;-70
2024/01/08 08:12:01;;;;;;;0.83;0.83;;;16.10;70.70;;;;;;5059098;28;44103;-70
2024/01/08 08:14:29;;;;;;;0.90;0.90;;;16.10;70.70;;;;;;5062229;28;44650;-70
2024/01/08 08:16:57;;;;;;;0.70;0.70;;;16.10;70.90;;;;;;5057750;28;43604;-69
2024/01/08 08:19:25;;;;;;;0.77;0.77;;;16.10;70.80;;;;;;5049460;28;44293;-69
2024/01/08 08:21:53;;;;;;;0.90;0.90;;;16.10;70.80;;;;;;5056972;28;43432;-70
2024/01/08 08:24:22;;;;;;;0.80;0.80;;;16.10;70.80;;;;;;5061981;28;44007;-71
2024/01/08 08:26:50;;;;;;;0.77;0.77;;;16.10;70.80;;;;;;5063012;28;45477;-71
2024/01/08 08:29:20;;;;;;;0.70;0.70;;;16.10;70.90;;;;;;5037132;28;43957;-71
2024/01/08 08:31:48;;;;;;;0.80;0.80;;;16.10;70.90;;;;;;5039360;28;43448;-71
2024/01/08 08:34:16;;;;;;;0.90;0.90;;;16.10;71.20;;;;;;5038939;28;43923;-71
2024/01/08 08:36:44;;;;;;;0.90;0.90;;;16.10;72.00;;;;;;5039507;28;43789;-71
2024/01/08 08:39:15;;;;;;;0.93;0.93;;;16.20;71.00;;;;;;5036796;28;43485;-71
2024/01/08 08:41:43;;;;;;;1.50;1.00;;;16.30;70.30;;;;;;5031385;28;43367;-72
2024/01/08 08:44:12;;;;;;;1.10;1.10;;;16.30;70.30;;;;;;5046143;28;43363;-71
2024/01/08 08:46:44;;;;;;;1.53;1.43;;;16.30;70.20;;;;;;5045457;28;43877;-72
2024/01/08 08:49:13;;;;;;;2.87;1.77;;;16.20;70.20;;;;;;5044672;28;44054;-71
2024/01/08 08:51:41;;;;;;;1.70;1.60;;;16.20;70.60;;;;;;5036682;28;43433;-71
2024/01/08 08:54:09;;;;;;;3.07;1.90;;;16.20;71.10;;;;;;5052235;28;43487;-70
2024/01/08 08:56:37;;;;;;;3.03;1.87;;;16.20;70.30;;;;;;5044190;28;43729;-70
2024/01/08 08:59:06;;;;;;;2.13;1.93;;;16.20;70.40;;;;;;5037776;28;43627;-72
2024/01/08 09:01:34;;;;;;;2.53;2.13;;;16.10;70.30;;;;;;5041350;28;43438;-71
2024/01/08 09:04:03;;;;;;;3.67;2.13;;;16.10;70.50;;;;;;5057337;28;43370;-70
2024/01/08 09:06:33;;;;;;;4.13;2.60;;;16.10;70.60;;;;;;5033709;28;45415;-71
2024/01/08 09:09:02;;;;;;;3.80;2.90;;;16.10;71.00;;;;;;5036026;28;43459;-70
2024/01/08 09:11:32;;;;;;;3.47;2.43;;;16.10;71.10;;;;;;5037703;28;43439;-70
2024/01/08 09:14:00;;;;;;;5.00;2.90;;;16.20;70.60;;;;;;5038675;28;43497;-70
2024/01/08 09:16:28;;;;;;;4.33;2.97;;;16.20;70.30;;;;;;5042336;28;44049;-70
2024/01/08 09:18:56;;;;;;;4.93;2.83;;;16.20;70.30;;;;;;5038858;28;44059;-71
2024/01/08 09:21:25;;;;;;;4.27;2.80;;;16.20;70.40;;;;;;5036735;28;43519;-70
2024/01/08 09:23:53;;;;;;;3.77;2.80;;;16.20;70.40;;;;;;5043632;28;43486;-71
2024/01/08 09:26:21;;;;;;;4.43;3.03;;;16.20;70.50;;;;;;5038186;28;43904;-70
2024/01/08 09:28:49;;;;;;;5.30;2.83;;;16.20;70.40;;;;;;5032065;28;45457;-70
2024/01/08 09:31:18;;;;;;;4.33;2.60;;;16.20;70.50;;;;;;5030345;28;43442;-70
2024/01/08 09:33:47;;;;;;;3.03;2.73;;;16.10;70.50;;;;;;5038719;28;44144;-71
2024/01/08 09:36:15;;;;;;;4.47;2.90;;;16.10;70.60;;;;;;5045644;28;45730;-71
2024/01/08 09:38:46;;;;;;;2.73;2.53;;;16.10;70.70;;;;;;5059889;28;43499;-70
2024/01/08 09:41:14;;;;;;;5.33;3.10;;;16.10;70.70;;;;;;5050842;28;43477;-70
2024/01/08 09:43:52;;;;;;;2.70;2.50;;;16.10;70.90;;;;;;5064836;28;43447;-69
2024/01/08 09:46:23;;;;;;;3.23;2.90;;;16.10;70.70;;;;;;5065463;28;43839;-69
2024/01/08 09:48:52;;;;;;;2.93;2.50;;;16.10;70.80;;;;;;5054121;28;44765;-70
2024/01/08 09:51:20;;;;;;;3.80;2.50;;;16.00;70.70;;;;;;5051356;28;43407;-70
2024/01/08 09:53:49;;;;;;;3.00;2.77;;;16.00;70.80;;;;;;5055062;28;43496;-70
2024/01/08 09:56:18;;;;;;;3.70;2.80;;;16.00;70.80;;;;;;5055774;28;43608;-70
2024/01/08 09:58:46;;;;;;;2.63;2.43;;;16.00;71.00;;;;;;5052300;28;45053;-70
2024/01/08 10:01:15;;;;;;;2.53;2.33;;;16.10;71.20;;;;;;5051443;28;43451;-70
2024/01/08 10:03:43;;;;;;;3.47;2.40;;;16.20;70.90;;;;;;5062150;28;43549;-70
2024/01/08 10:06:12;;;;;;;2.43;2.27;;;16.30;70.30;;;;;;5058975;28;44600;-71
2024/01/08 10:08:40;;;;;;;2.97;2.67;;;16.20;70.10;;;;;;5060060;28;43981;-70
2024/01/08 10:11:10;;;;;;;2.73;2.47;;;16.20;70.10;;;;;;5048869;28;43407;-71
2024/01/08 10:13:39;;;;;;;2.70;2.50;;;16.20;70.20;;;;;;5054085;28;43439;-71
2024/01/08 10:16:08;;;;;;;3.73;2.93;;;16.20;70.50;;;;;;5056073;28;45964;-70
2024/01/08 10:18:37;;;;;;;3.37;2.63;;;16.20;70.40;;;;;;5061658;28;43430;-70
2024/01/08 10:21:10;;;;;;;2.70;2.50;;;16.20;70.40;;;;;;5057291;28;43416;-71
2024/01/08 10:23:38;;;;;;;3.17;2.77;;;16.20;70.50;;;;;;5048577;28;43456;-71
2024/01/08 10:26:06;;;;;;;2.83;2.63;;;16.10;70.50;;;;;;5062224;28;43599;-71
2024/01/08 10:28:37;;;;;;;2.43;2.23;;;16.10;70.60;;;;;;5051486;28;43391;-70
2024/01/08 10:31:05;;;;;;;2.50;2.40;;;16.10;70.60;;;;;;5055915;28;43360;-71
2024/01/08 10:33:34;;;;;;;2.67;2.47;;;16.10;70.80;;;;;;5062117;28;43928;-71
2024/01/08 10:36:04;;;;;;;2.70;2.50;;;16.10;70.80;;;;;;5056184;28;45478;-71
2024/01/08 10:38:33;;;;;;;2.53;2.33;;;16.00;70.60;;;;;;5054968;28;43466;-71
2024/01/08 10:41:01;;;;;;;2.43;2.23;;;16.10;70.80;;;;;;5047294;28;43485;-71
2024/01/08 10:43:29;;;;;;;2.40;2.30;;;16.00;70.70;;;;;;5059395;28;43522;-71
2024/01/08 10:46:02;;;;;;;2.53;2.33;;;16.00;70.70;;;;;;5051759;28;44532;-71
2024/01/08 10:48:39;;;;;;;2.70;2.43;;;16.00;70.80;;;;;;5056520;28;43301;-71
2024/01/08 10:51:08;;;;;;;2.13;2.03;;;16.00;71.00;;;;;;5060807;28;43576;-71
2024/01/08 10:53:41;;;;;;;3.27;2.47;;;16.10;70.90;;;;;;5058186;28;43734;-71
2024/01/08 10:56:12;;;;;;;2.43;2.33;;;16.20;70.40;;;;;;5049581;28;44042;-71
2024/01/08 10:58:42;;;;;;;2.30;2.20;;;16.20;70.10;;;;;;5063619;28;43802;-71
2024/01/08 11:01:12;;;;;;;2.70;2.50;;;16.20;70.10;;;;;;5051925;28;43459;-70
2024/01/08 11:03:40;;;;;;;2.30;2.20;;;16.20;70.20;;;;;;5062842;28;43384;-71
2024/01/08 11:06:08;;;;;;;2.30;2.10;;;16.20;70.40;;;;;;5065194;28;43840;-71
2024/01/08 11:08:36;;;;;;;2.30;2.10;;;16.20;70.30;;;;;;5058075;28;44957;-70
2024/01/08 11:11:06;;;;;;;2.40;2.30;;;16.20;70.40;;;;;;5061592;28;43423;-70
2024/01/08 11:13:34;;;;;;;2.20;2.10;;;16.20;70.40;;;;;;5057343;28;43447;-70
2024/01/08 11:16:06;;;;;;;2.17;2.07;;;16.10;70.40;;;;;;5055216;28;43707;-71
2024/01/08 11:18:38;;;;;;;2.20;2.10;;;16.10;70.50;;;;;;5065088;28;43437;-71
2024/01/08 11:21:06;;;;;;;2.40;2.30;;;16.10;70.60;;;;;;5055682;28;43386;-71
2024/01/08 11:23:37;;;;;;;2.60;2.40;;;16.10;70.60;;;;;;5061487;28;43371;-71
2024/01/08 11:26:10;;;;;;;2.50;2.40;;;16.10;70.50;;;;;;5061208;28;44522;-71
2024/01/08 11:28:39;;;;;;;2.77;2.47;;;16.10;70.50;;;;;;5063419;28;43443;-71
2024/01/08 11:31:45;;;;;;;2.20;2.10;;;16.10;70.60;;;;;;5058657;28;43440;-70
2024/01/08 11:34:45;;;;;;;2.10;2.00;;;16.00;70.60;;;;;;5060553;28;43487;-70
2024/01/08 11:37:32;;;;;;;2.13;2.03;;;16.00;70.60;;;;;;5059240;28;43908;-70
2024/01/08 11:40:02;;;;;;;2.17;2.07;;;16.00;70.60;;;;;;5057745;28;44072;-70
2024/01/08 11:42:31;;;;;;;2.00;1.90;;;16.00;70.90;;;;;;5078987;28;43448;-70
2024/01/08 11:45:00;;;;;;;2.20;2.10;;;16.10;70.70;;;;;;5059464;28;43375;-70
2024/01/08 11:47:28;;;;;;;2.10;1.90;;;16.20;70.10;;;;;;5057767;28;43830;-70
2024/01/08 11:49:58;;;;;;;2.00;1.90;;;16.20;70.10;;;;;;5058040;28;43563;-70
2024/01/08 11:52:26;;;;;;;2.17;2.07;;;16.20;70.10;;;;;;5057267;28;43572;-71
2024/01/08 11:54:55;;;;;;;2.33;2.13;;;16.20;70.10;;;;;;5056327;28;43463;-70
2024/01/08 11:57:23;;;;;;;2.10;2.00;;;16.20;70.30;;;;;;5053342;28;43837;-71
2024/01/08 11:59:52;;;;;;;2.10;2.00;;;16.10;70.70;;;;;;5039641;28;43442;-70
2024/01/08 12:02:21;;;;;;;2.13;2.03;;;16.20;70.20;;;;;;5044125;28;43575;-70
2024/01/08 12:04:53;;;;;;;2.17;2.07;;;16.10;70.20;;;;;;5040338;28;43471;-70
2024/01/08 12:07:21;;;;;;;2.20;2.10;;;16.10;70.30;;;;;;5039458;28;43621;-70
2024/01/08 12:09:49;;;;;;;1.87;1.77;;;16.10;70.50;;;;;;5039123;28;43564;-71
2024/01/08 12:12:18;;;;;;;2.03;1.93;;;16.10;70.50;;;;;;5040649;28;43495;-71
2024/01/08 12:14:47;;;;;;;2.33;2.23;;;16.10;70.60;;;;;;5038545;28;44134;-70
2024/01/08 12:17:16;;;;;;;1.97;1.87;;;16.10;70.50;;;;;;5039092;28;46147;-70
2024/01/08 12:19:45;;;;;;;2.10;2.00;;;16.10;70.50;;;;;;5042186;28;43435;-70
2024/01/08 12:22:13;;;;;;;2.07;1.97;;;16.10;70.60;;;;;;5041772;28;43514;-71
2024/01/08 12:24:44;;;;;;;1.93;1.83;;;16.10;70.60;;;;;;5042421;28;43427;-71
2024/01/08 12:27:13;;;;;;;1.80;1.80;;;16.10;70.60;;;;;;5039728;28;45996;-78
2024/01/08 12:29:41;;;;;;;1.90;1.80;;;16.00;70.60;;;;;;5040879;28;44727;-71
2024/01/08 12:32:10;;;;;;;1.83;1.80;;;16.00;70.70;;;;;;5042190;28;43469;-71
2024/01/08 12:34:39;;;;;;;2.10;2.00;;;16.10;70.70;;;;;;5040436;28;43844;-71
2024/01/08 12:37:08;;;;;;;1.80;1.80;;;16.20;70.40;;;;;;5043010;28;43797;-71
2024/01/08 12:39:36;;;;;;;1.93;1.93;;;16.30;69.80;;;;;;5038778;28;43824;-71
2024/01/08 12:42:08;;;;;;;2.27;2.17;;;16.30;69.70;;;;;;5040038;28;43527;-71
2024/01/08 12:44:36;;;;;;;2.03;1.93;;;16.30;69.90;;;;;;5040535;28;43568;-71
2024/01/08 12:47:07;;;;;;;2.17;2.07;;;16.20;69.90;;;;;;5038867;28;44974;-71
2024/01/08 12:49:35;;;;;;;1.90;1.87;;;16.20;70.10;;;;;;5041947;28;44017;-71
2024/01/08 12:52:04;;;;;;;1.90;1.90;;;16.20;70.10;;;;;;5039893;28;43435;-71
2024/01/08 12:54:37;;;;;;;1.70;1.70;;;16.20;70.30;;;;;;5043803;28;43543;-71
2024/01/08 12:57:06;;;;;;;1.93;1.83;;;16.10;70.20;;;;;;5033700;28;44144;-71